sensor_id;sensor_type;location;lat;lon;timestamp;temperature;humidity
2010;DHT22;1008;47.404;8.502;2023-07-20T00:01:24;22.90;99.90
2010;DHT22;1008;47.404;8.502;2023-07-20T00:03:50;22.80;99.90
2010;DHT22;1008;47.404;8.502;2023-07-20T00:06:21;23.00;99.90
2010;DHT22;1008;47.404;8.502;2023-07-20T00:08:49;23.00;99.90
2010;DHT22;1008;47.404;8.502;2023-07-20T00:11:15;23.10;99.90
2010;DHT22;1008;47.404;8.502;2023-07-20T00:13:42;23.10;99.90
2010;DHT22;1008;47.404;8.502;2023-07-20T00:16:09;23.10;99.90
2010;DHT22;1008;47.404;8.502;2023-07-20T00:18:36;23.00;99.90
2010;DHT22;1008;47.404;8.502;2023-07-20T00:21:02;23.00;99.90
2010;DHT22;1008;47.404;8.502;2023-07-20T00:23:29;23.10;99.90
2010;DHT22;1008;47.404;8.502;2023-07-20T00:25:57;23.10;99.90
2010;DHT22;1008;47.404;8.502;2023-07-20T00:28:24;23.20;99.90
2010;DHT22;1008;47.404;8.502;2023-07-20T00:30:51;23.10;99.90
2010;DHT22;1008;47.404;8.502;2023-07-20T00:33:18;23.40;99.90
2010;DHT22;1008;47.404;8.502;2023-07-20T00:35:45;23.10;99.90
2010;DHT22;1008;47.404;8.502;2023-07-20T00:38:11;23.10;99.90
2010;DHT22;1008;47.404;8.502;2023-07-20T00:40:39;23.00;99.90
2010;DHT22;1008;47.404;8.502;2023-07-20T00:43:09;23.10;99.90
2010;DHT22;1008;47.404;8.502;2023-07-20T00:45:36;23.00;99.90
2010;DHT22;1008;47.404;8.502;2023-07-20T00:48:04;22.90;99.90
2010;DHT22;1008;47.404;8.502;2023-07-20T00:50:34;23.00;99.90
2010;DHT22;1008;47.404;8.502;2023-07-20T00:53:02;23.00;99.90
2010;DHT22;1008;47.404;8.502;2023-07-20T00:55:30;23.10;99.90
2010;DHT22;1008;47.404;8.502;2023-07-20T00:57:58;23.10;99.90
2010;DHT22;1008;47.404;8.502;2023-07-20T01:00:26;23.20;99.90
2010;DHT22;1008;47.404;8.502;2023-07-20T01:02:53;23.10;99.90
2010;DHT22;1008;47.404;8.502;2023-07-20T01:05:20;23.00;99.90
2010;DHT22;1008;47.404;8.502;2023-07-20T01:07:53;22.90;99.90
2010;DHT22;1008;47.404;8.502;2023-07-20T01:10:27;22.90;99.90
2010;DHT22;1008;47.404;8.502;2023-07-20T01:12:56;23.00;99.90
2010;DHT22;1008;47.404;8.502;2023-07-20T01:15:25;23.00;99.90
2010;DHT22;1008;47.404;8.502;2023-07-20T01:17:52;23.00;99.90
2010;DHT22;1008;47.404;8.502;2023-07-20T01:20:20;23.00;99.90
2010;DHT22;1008;47.404;8.502;2023-07-20T01:23:02;23.00;99.90
2010;DHT22;1008;47.404;8.502;2023-07-20T01:25:45;23.00;99.90
2010;DHT22;1008;47.404;8.502;2023-07-20T01:28:37;23.00;99.90
2010;DHT22;1008;47.404;8.502;2023-07-20T01:31:19;22.90;99.90
2010;DHT22;1008;47.404;8.502;2023-07-20T01:33:47;22.90;99.90
2010;DHT22;1008;47.404;8.502;2023-07-20T01:36:16;22.90;99.90
2010;DHT22;1008;47.404;8.502;2023-07-20T01:38:45;23.10;99.90
2010;DHT22;1008;47.404;8.502;2023-07-20T01:41:12;22.70;99.90
2010;DHT22;1008;47.404;8.502;2023-07-20T01:43:38;22.70;99.90
2010;DHT22;1008;47.404;8.502;2023-07-20T01:46:05;22.90;99.90
2010;DHT22;1008;47.404;8.502;2023-07-20T01:48:33;22.70;99.90
2010;DHT22;1008;47.404;8.502;2023-07-20T01:51:00;22.70;99.90
2010;DHT22;1008;47.404;8.502;2023-07-20T01:53:26;22.80;99.90
2010;DHT22;1008;47.404;8.502;2023-07-20T01:55:53;22.60;99.90
2010;DHT22;1008;47.404;8.502;2023-07-20T01:58:20;22.60;99.90
2010;DHT22;1008;47.404;8.502;2023-07-20T02:00:47;22.60;99.90
2010;DHT22;1008;47.404;8.502;2023-07-20T02:03:13;22.50;99.90
2010;DHT22;1008;47.404;8.502;2023-07-20T02:05:43;22.50;99.90
2010;DHT22;1008;47.404;8.502;2023-07-20T02:08:10;22.50;99.90
2010;DHT22;1008;47.404;8.502;2023-07-20T02:10:37;22.50;99.90
2010;DHT22;1008;47.404;8.502;2023-07-20T02:13:04;22.60;99.90
2010;DHT22;1008;47.404;8.502;2023-07-20T02:15:30;22.70;99.90
2010;DHT22;1008;47.404;8.502;2023-07-20T02:17:57;22.50;99.90
2010;DHT22;1008;47.404;8.502;2023-07-20T02:20:24;22.30;99.90
2010;DHT22;1008;47.404;8.502;2023-07-20T02:22:52;22.30;99.90
2010;DHT22;1008;47.404;8.502;2023-07-20T02:25:18;22.30;99.90
2010;DHT22;1008;47.404;8.502;2023-07-20T02:27:44;22.10;99.90
2010;DHT22;1008;47.404;8.502;2023-07-20T02:30:11;22.30;99.90
2010;DHT22;1008;47.404;8.502;2023-07-20T02:32:38;22.20;99.90
2010;DHT22;1008;47.404;8.502;2023-07-20T02:35:06;22.30;99.90
2010;DHT22;1008;47.404;8.502;2023-07-20T02:37:32;22.10;99.90
2010;DHT22;1008;47.404;8.502;2023-07-20T02:40:00;22.20;99.90
2010;DHT22;1008;47.404;8.502;2023-07-20T02:42:29;22.10;99.90
2010;DHT22;1008;47.404;8.502;2023-07-20T02:44:56;22.10;99.90
2010;DHT22;1008;47.404;8.502;2023-07-20T02:47:22;22.10;99.90
2010;DHT22;1008;47.404;8.502;2023-07-20T02:49:49;22.10;99.90
2010;DHT22;1008;47.404;8.502;2023-07-20T02:52:16;22.10;99.90
2010;DHT22;1008;47.404;8.502;2023-07-20T02:54:42;22.10;99.90
2010;DHT22;1008;47.404;8.502;2023-07-20T02:57:10;22.10;99.90
2010;DHT22;1008;47.404;8.502;2023-07-20T02:59:37;22.10;99.90
2010;DHT22;1008;47.404;8.502;2023-07-20T03:02:04;22.10;99.90
2010;DHT22;1008;47.404;8.502;2023-07-20T03:04:31;21.90;99.90
2010;DHT22;1008;47.404;8.502;2023-07-20T03:06:57;21.90;99.90
2010;DHT22;1008;47.404;8.502;2023-07-20T03:09:25;22.00;99.90
2010;DHT22;1008;47.404;8.502;2023-07-20T03:11:52;22.00;99.90
2010;DHT22;1008;47.404;8.502;2023-07-20T03:14:20;21.80;99.90
2010;DHT22;1008;47.404;8.502;2023-07-20T03:16:46;21.90;99.90
2010;DHT22;1008;47.404;8.502;2023-07-20T03:19:13;21.90;99.90
2010;DHT22;1008;47.404;8.502;2023-07-20T03:21:40;21.80;99.90
2010;DHT22;1008;47.404;8.502;2023-07-20T03:24:07;21.80;99.90
2010;DHT22;1008;47.404;8.502;2023-07-20T03:26:34;21.70;99.90
2010;DHT22;1008;47.404;8.502;2023-07-20T03:29:01;21.80;99.90
2010;DHT22;1008;47.404;8.502;2023-07-20T03:31:29;21.80;99.90
2010;DHT22;1008;47.404;8.502;2023-07-20T03:33:56;21.80;99.90
2010;DHT22;1008;47.404;8.502;2023-07-20T03:36:22;21.60;99.90
2010;DHT22;1008;47.404;8.502;2023-07-20T03:38:49;21.70;99.90
2010;DHT22;1008;47.404;8.502;2023-07-20T03:41:16;21.70;99.90
2010;DHT22;1008;47.404;8.502;2023-07-20T03:43:45;21.80;99.90
2010;DHT22;1008;47.404;8.502;2023-07-20T03:46:11;21.80;99.90
2010;DHT22;1008;47.404;8.502;2023-07-20T03:48:39;21.70;99.90
2010;DHT22;1008;47.404;8.502;2023-07-20T03:51:06;21.60;99.90
2010;DHT22;1008;47.404;8.502;2023-07-20T03:53:33;21.60;99.90
2010;DHT22;1008;47.404;8.502;2023-07-20T03:56:00;21.60;99.90
2010;DHT22;1008;47.404;8.502;2023-07-20T03:58:26;21.60;99.90
2010;DHT22;1008;47.404;8.502;2023-07-20T04:00:53;21.60;99.90
2010;DHT22;1008;47.404;8.502;2023-07-20T04:03:20;21.60;99.90
2010;DHT22;1008;47.404;8.502;2023-07-20T04:05:49;21.70;99.90
2010;DHT22;1008;47.404;8.502;2023-07-20T04:08:16;21.60;99.90
2010;DHT22;1008;47.404;8.502;2023-07-20T04:10:43;21.70;99.90
2010;DHT22;1008;47.404;8.502;2023-07-20T04:13:10;21.70;99.90
2010;DHT22;1008;47.404;8.502;2023-07-20T04:15:37;21.60;99.90
2010;DHT22;1008;47.404;8.502;2023-07-20T04:18:04;21.50;99.90
2010;DHT22;1008;47.404;8.502;2023-07-20T04:20:30;21.40;99.90
2010;DHT22;1008;47.404;8.502;2023-07-20T04:22:58;21.30;99.90
2010;DHT22;1008;47.404;8.502;2023-07-20T04:25:25;21.10;99.90
2010;DHT22;1008;47.404;8.502;2023-07-20T04:27:52;21.00;99.90
2010;DHT22;1008;47.404;8.502;2023-07-20T04:30:19;21.00;99.90
2010;DHT22;1008;47.404;8.502;2023-07-20T04:32:46;21.00;99.90
2010;DHT22;1008;47.404;8.502;2023-07-20T04:35:17;21.20;99.90
2010;DHT22;1008;47.404;8.502;2023-07-20T04:37:44;21.00;99.90
2010;DHT22;1008;47.404;8.502;2023-07-20T04:40:15;21.10;99.90
2010;DHT22;1008;47.404;8.502;2023-07-20T04:42:42;21.20;99.90
2010;DHT22;1008;47.404;8.502;2023-07-20T04:45:09;21.40;99.90
2010;DHT22;1008;47.404;8.502;2023-07-20T04:47:36;21.60;99.90
2010;DHT22;1008;47.404;8.502;2023-07-20T04:50:03;21.50;99.90
2010;DHT22;1008;47.404;8.502;2023-07-20T04:52:30;21.60;99.90
2010;DHT22;1008;47.404;8.502;2023-07-20T04:54:56;21.60;99.90
2010;DHT22;1008;47.404;8.502;2023-07-20T04:57:24;21.70;99.90
2010;DHT22;1008;47.404;8.502;2023-07-20T04:59:52;21.80;99.90
2010;DHT22;1008;47.404;8.502;2023-07-20T05:02:18;21.80;99.90
2010;DHT22;1008;47.404;8.502;2023-07-20T05:04:46;21.70;99.90
2010;DHT22;1008;47.404;8.502;2023-07-20T05:07:12;21.80;99.90
2010;DHT22;1008;47.404;8.502;2023-07-20T05:09:39;21.80;99.90
2010;DHT22;1008;47.404;8.502;2023-07-20T05:12:06;22.10;99.90
2010;DHT22;1008;47.404;8.502;2023-07-20T05:14:34;22.20;99.90
2010;DHT22;1008;47.404;8.502;2023-07-20T05:17:01;22.00;99.90
2010;DHT22;1008;47.404;8.502;2023-07-20T05:19:28;22.10;99.90
2010;DHT22;1008;47.404;8.502;2023-07-20T05:21:54;22.20;99.90
2010;DHT22;1008;47.404;8.502;2023-07-20T05:24:21;22.10;99.90
2010;DHT22;1008;47.404;8.502;2023-07-20T05:26:48;22.10;99.90
2010;DHT22;1008;47.404;8.502;2023-07-20T05:29:15;22.00;99.90
2010;DHT22;1008;47.404;8.502;2023-07-20T05:31:43;22.20;99.90
2010;DHT22;1008;47.404;8.502;2023-07-20T05:34:10;22.30;99.90
2010;DHT22;1008;47.404;8.502;2023-07-20T05:36:37;22.20;99.90
2010;DHT22;1008;47.404;8.502;2023-07-20T05:39:03;22.30;99.90
2010;DHT22;1008;47.404;8.502;2023-07-20T05:41:30;22.30;99.90
2010;DHT22;1008;47.404;8.502;2023-07-20T05:43:57;22.30;99.90
2010;DHT22;1008;47.404;8.502;2023-07-20T05:46:23;22.40;99.90
2010;DHT22;1008;47.404;8.502;2023-07-20T05:48:52;22.30;99.90
2010;DHT22;1008;47.404;8.502;2023-07-20T05:51:18;22.40;99.90
2010;DHT22;1008;47.404;8.502;2023-07-20T05:53:45;22.50;99.90
2010;DHT22;1008;47.404;8.502;2023-07-20T05:56:13;22.40;99.90
2010;DHT22;1008;47.404;8.502;2023-07-20T05:58:40;22.30;99.90
2010;DHT22;1008;47.404;8.502;2023-07-20T06:01:07;22.40;99.90
2010;DHT22;1008;47.404;8.502;2023-07-20T06:03:34;22.40;99.90
2010;DHT22;1008;47.404;8.502;2023-07-20T06:06:02;22.30;99.90
2010;DHT22;1008;47.404;8.502;2023-07-20T06:08:29;22.50;99.90
2010;DHT22;1008;47.404;8.502;2023-07-20T06:10:56;22.50;99.90
2010;DHT22;1008;47.404;8.502;2023-07-20T06:13:23;22.60;99.90
2010;DHT22;1008;47.404;8.502;2023-07-20T06:15:50;22.60;99.90
2010;DHT22;1008;47.404;8.502;2023-07-20T06:18:17;22.60;99.90
2010;DHT22;1008;47.404;8.502;2023-07-20T06:20:49;22.50;99.90
2010;DHT22;1008;47.404;8.502;2023-07-20T06:23:17;22.30;99.90
2010;DHT22;1008;47.404;8.502;2023-07-20T06:25:44;22.30;99.90
2010;DHT22;1008;47.404;8.502;2023-07-20T06:28:10;22.20;99.90
2010;DHT22;1008;47.404;8.502;2023-07-20T06:30:37;22.50;99.90
2010;DHT22;1008;47.404;8.502;2023-07-20T06:33:04;22.50;99.90
2010;DHT22;1008;47.404;8.502;2023-07-20T06:35:30;22.50;99.90
2010;DHT22;1008;47.404;8.502;2023-07-20T06:37:57;22.60;99.90
2010;DHT22;1008;47.404;8.502;2023-07-20T06:40:27;22.70;99.90
2010;DHT22;1008;47.404;8.502;2023-07-20T06:42:53;22.70;99.90
2010;DHT22;1008;47.404;8.502;2023-07-20T06:45:20;22.80;99.90
2010;DHT22;1008;47.404;8.502;2023-07-20T06:47:47;23.00;99.90
2010;DHT22;1008;47.404;8.502;2023-07-20T06:50:14;23.10;99.90
2010;DHT22;1008;47.404;8.502;2023-07-20T06:52:41;23.40;99.90
2010;DHT22;1008;47.404;8.502;2023-07-20T06:55:08;23.60;99.90
2010;DHT22;1008;47.404;8.502;2023-07-20T06:57:36;23.60;99.90
2010;DHT22;1008;47.404;8.502;2023-07-20T07:00:03;23.30;99.90
2010;DHT22;1008;47.404;8.502;2023-07-20T07:02:31;23.20;99.90
2010;DHT22;1008;47.404;8.502;2023-07-20T07:04:59;23.40;99.90
2010;DHT22;1008;47.404;8.502;2023-07-20T07:07:26;23.10;99.90
2010;DHT22;1008;47.404;8.502;2023-07-20T07:09:53;23.00;99.90
2010;DHT22;1008;47.404;8.502;2023-07-20T07:12:20;23.10;99.90
2010;DHT22;1008;47.404;8.502;2023-07-20T07:14:48;23.20;99.90
2010;DHT22;1008;47.404;8.502;2023-07-20T07:17:15;23.20;99.90
2010;DHT22;1008;47.404;8.502;2023-07-20T07:19:41;23.30;99.90
2010;DHT22;1008;47.404;8.502;2023-07-20T07:22:08;23.30;99.90
2010;DHT22;1008;47.404;8.502;2023-07-20T07:24:35;23.30;99.90
2010;DHT22;1008;47.404;8.502;2023-07-20T07:27:01;23.20;99.90
2010;DHT22;1008;47.404;8.502;2023-07-20T07:29:29;23.30;99.90
2010;DHT22;1008;47.404;8.502;2023-07-20T07:31:57;23.40;99.90
2010;DHT22;1008;47.404;8.502;2023-07-20T07:34:24;23.30;99.90
2010;DHT22;1008;47.404;8.502;2023-07-20T07:36:51;23.50;99.90
2010;DHT22;1008;47.404;8.502;2023-07-20T07:39:18;23.70;99.90
2010;DHT22;1008;47.404;8.502;2023-07-20T07:41:45;23.60;99.90
2010;DHT22;1008;47.404;8.502;2023-07-20T07:44:12;23.70;99.90
2010;DHT22;1008;47.404;8.502;2023-07-20T07:46:38;23.80;99.90
2010;DHT22;1008;47.404;8.502;2023-07-20T07:49:07;24.00;99.90
2010;DHT22;1008;47.404;8.502;2023-07-20T07:51:34;24.20;99.90
2010;DHT22;1008;47.404;8.502;2023-07-20T07:54:01;24.40;99.90
2010;DHT22;1008;47.404;8.502;2023-07-20T07:56:27;24.30;99.90
2010;DHT22;1008;47.404;8.502;2023-07-20T07:58:54;24.40;99.90
2010;DHT22;1008;47.404;8.502;2023-07-20T08:01:21;24.20;99.90
2010;DHT22;1008;47.404;8.502;2023-07-20T08:03:48;24.10;99.90
2010;DHT22;1008;47.404;8.502;2023-07-20T08:06:16;24.40;99.90
2010;DHT22;1008;47.404;8.502;2023-07-20T08:08:42;24.70;99.90
2010;DHT22;1008;47.404;8.502;2023-07-20T08:11:09;24.80;99.90
2010;DHT22;1008;47.404;8.502;2023-07-20T08:13:36;24.70;99.90
2010;DHT22;1008;47.404;8.502;2023-07-20T08:16:03;25.00;99.90
2010;DHT22;1008;47.404;8.502;2023-07-20T08:18:30;25.20;99.90
2010;DHT22;1008;47.404;8.502;2023-07-20T08:20:57;25.40;99.90
2010;DHT22;1008;47.404;8.502;2023-07-20T08:23:25;25.30;99.90
2010;DHT22;1008;47.404;8.502;2023-07-20T08:25:54;26.00;99.90
2010;DHT22;1008;47.404;8.502;2023-07-20T08:28:20;25.80;99.90
2010;DHT22;1008;47.404;8.502;2023-07-20T08:30:48;25.00;99.90
2010;DHT22;1008;47.404;8.502;2023-07-20T08:33:16;24.50;99.90
2010;DHT22;1008;47.404;8.502;2023-07-20T08:35:45;24.40;99.90
2010;DHT22;1008;47.404;8.502;2023-07-20T08:38:12;24.80;99.90
2010;DHT22;1008;47.404;8.502;2023-07-20T08:40:41;24.80;99.90
2010;DHT22;1008;47.404;8.502;2023-07-20T08:43:09;24.80;99.90
2010;DHT22;1008;47.404;8.502;2023-07-20T08:45:38;24.80;99.90
2010;DHT22;1008;47.404;8.502;2023-07-20T08:48:06;25.00;99.90
2010;DHT22;1008;47.404;8.502;2023-07-20T08:50:34;25.20;99.90
2010;DHT22;1008;47.404;8.502;2023-07-20T08:53:01;25.10;99.90
2010;DHT22;1008;47.404;8.502;2023-07-20T08:55:29;25.10;99.90
2010;DHT22;1008;47.404;8.502;2023-07-20T08:57:59;25.10;99.90
2010;DHT22;1008;47.404;8.502;2023-07-20T09:00:27;25.30;99.90
2010;DHT22;1008;47.404;8.502;2023-07-20T09:02:55;25.60;99.90
2010;DHT22;1008;47.404;8.502;2023-07-20T09:05:23;26.00;99.90
2010;DHT22;1008;47.404;8.502;2023-07-20T09:07:51;26.10;99.90
2010;DHT22;1008;47.404;8.502;2023-07-20T09:10:18;26.40;99.90
2010;DHT22;1008;47.404;8.502;2023-07-20T09:12:44;26.50;99.90
2010;DHT22;1008;47.404;8.502;2023-07-20T09:15:12;25.90;99.90
2010;DHT22;1008;47.404;8.502;2023-07-20T09:17:39;25.60;99.90
2010;DHT22;1008;47.404;8.502;2023-07-20T09:20:12;25.60;99.90
2010;DHT22;1008;47.404;8.502;2023-07-20T09:22:39;25.40;99.90
2010;DHT22;1008;47.404;8.502;2023-07-20T09:25:06;25.40;99.90
2010;DHT22;1008;47.404;8.502;2023-07-20T09:27:38;25.20;99.90
2010;DHT22;1008;47.404;8.502;2023-07-20T09:30:06;24.90;99.90
2010;DHT22;1008;47.404;8.502;2023-07-20T09:32:40;24.70;99.90
2010;DHT22;1008;47.404;8.502;2023-07-20T09:35:13;24.80;99.90
2010;DHT22;1008;47.404;8.502;2023-07-20T09:37:46;25.10;99.90
2010;DHT22;1008;47.404;8.502;2023-07-20T09:40:15;25.30;99.90
2010;DHT22;1008;47.404;8.502;2023-07-20T09:42:43;25.30;99.90
2010;DHT22;1008;47.404;8.502;2023-07-20T09:45:10;25.30;99.90
2010;DHT22;1008;47.404;8.502;2023-07-20T09:47:39;25.30;99.90
2010;DHT22;1008;47.404;8.502;2023-07-20T09:50:07;25.00;99.90
2010;DHT22;1008;47.404;8.502;2023-07-20T09:52:38;25.10;99.90
2010;DHT22;1008;47.404;8.502;2023-07-20T09:55:06;25.60;99.90
2010;DHT22;1008;47.404;8.502;2023-07-20T09:57:33;25.40;99.90
2010;DHT22;1008;47.404;8.502;2023-07-20T10:00:01;25.60;99.90
2010;DHT22;1008;47.404;8.502;2023-07-20T10:02:32;25.70;99.90
2010;DHT22;1008;47.404;8.502;2023-07-20T10:05:03;25.70;99.90
2010;DHT22;1008;47.404;8.502;2023-07-20T10:07:30;26.00;99.90
2010;DHT22;1008;47.404;8.502;2023-07-20T10:09:59;26.40;99.90
2010;DHT22;1008;47.404;8.502;2023-07-20T10:12:29;26.60;99.90
2010;DHT22;1008;47.404;8.502;2023-07-20T10:15:04;27.20;99.90
2010;DHT22;1008;47.404;8.502;2023-07-20T10:17:38;27.30;99.90
2010;DHT22;1008;47.404;8.502;2023-07-20T10:20:09;27.30;99.90
2010;DHT22;1008;47.404;8.502;2023-07-20T10:22:36;27.10;99.90
2010;DHT22;1008;47.404;8.502;2023-07-20T10:25:05;27.00;99.90
2010;DHT22;1008;47.404;8.502;2023-07-20T10:27:32;26.80;99.90
2010;DHT22;1008;47.404;8.502;2023-07-20T10:29:59;26.40;99.90
2010;DHT22;1008;47.404;8.502;2023-07-20T10:32:28;26.30;99.90
2010;DHT22;1008;47.404;8.502;2023-07-20T10:34:56;26.40;99.90
2010;DHT22;1008;47.404;8.502;2023-07-20T10:37:47;26.30;99.90
2010;DHT22;1008;47.404;8.502;2023-07-20T10:40:29;26.60;99.90
2010;DHT22;1008;47.404;8.502;2023-07-20T10:43:00;26.80;99.90
2010;DHT22;1008;47.404;8.502;2023-07-20T10:45:39;26.40;99.90
2010;DHT22;1008;47.404;8.502;2023-07-20T10:48:13;26.20;99.90
2010;DHT22;1008;47.404;8.502;2023-07-20T10:50:41;26.40;99.90
2010;DHT22;1008;47.404;8.502;2023-07-20T10:53:14;26.80;99.90
2010;DHT22;1008;47.404;8.502;2023-07-20T10:55:42;27.10;99.90
2010;DHT22;1008;47.404;8.502;2023-07-20T10:58:10;26.90;99.90
2010;DHT22;1008;47.404;8.502;2023-07-20T11:00:44;27.10;99.90
2010;DHT22;1008;47.404;8.502;2023-07-20T11:03:29;27.20;99.90
2010;DHT22;1008;47.404;8.502;2023-07-20T11:05:57;27.10;99.90
2010;DHT22;1008;47.404;8.502;2023-07-20T11:08:41;27.20;99.90
2010;DHT22;1008;47.404;8.502;2023-07-20T11:11:29;27.50;99.90
2010;DHT22;1008;47.404;8.502;2023-07-20T11:13:57;27.50;99.90
2010;DHT22;1008;47.404;8.502;2023-07-20T11:16:35;27.70;99.90
2010;DHT22;1008;47.404;8.502;2023-07-20T11:19:02;27.60;99.90
2010;DHT22;1008;47.404;8.502;2023-07-20T11:21:29;27.50;99.90
2010;DHT22;1008;47.404;8.502;2023-07-20T11:23:57;27.60;99.90
2010;DHT22;1008;47.404;8.502;2023-07-20T11:26:24;27.70;99.90
2010;DHT22;1008;47.404;8.502;2023-07-20T11:28:51;27.40;99.90
2010;DHT22;1008;47.404;8.502;2023-07-20T11:31:18;27.50;99.90
2010;DHT22;1008;47.404;8.502;2023-07-20T11:33:44;27.30;99.90
2010;DHT22;1008;47.404;8.502;2023-07-20T11:36:12;26.90;99.90
2010;DHT22;1008;47.404;8.502;2023-07-20T11:38:41;26.80;99.90
2010;DHT22;1008;47.404;8.502;2023-07-20T11:41:09;26.90;99.90
2010;DHT22;1008;47.404;8.502;2023-07-20T11:43:36;27.20;99.90
2010;DHT22;1008;47.404;8.502;2023-07-20T11:46:04;27.00;99.90
2010;DHT22;1008;47.404;8.502;2023-07-20T11:48:31;27.50;99.90
2010;DHT22;1008;47.404;8.502;2023-07-20T11:50:58;27.40;99.90
2010;DHT22;1008;47.404;8.502;2023-07-20T11:53:25;27.60;99.90
2010;DHT22;1008;47.404;8.502;2023-07-20T11:55:52;27.80;99.90
2010;DHT22;1008;47.404;8.502;2023-07-20T11:58:21;28.20;99.90
2010;DHT22;1008;47.404;8.502;2023-07-20T12:00:48;27.90;99.90
2010;DHT22;1008;47.404;8.502;2023-07-20T12:03:14;28.00;99.90
2010;DHT22;1008;47.404;8.502;2023-07-20T12:05:41;28.30;99.90
2010;DHT22;1008;47.404;8.502;2023-07-20T12:08:08;28.00;99.90
2010;DHT22;1008;47.404;8.502;2023-07-20T12:10:39;27.70;99.90
2010;DHT22;1008;47.404;8.502;2023-07-20T12:13:10;27.50;99.90
2010;DHT22;1008;47.404;8.502;2023-07-20T12:15:39;27.60;99.90
2010;DHT22;1008;47.404;8.502;2023-07-20T12:18:06;27.40;99.90
2010;DHT22;1008;47.404;8.502;2023-07-20T12:20:34;27.70;99.90
2010;DHT22;1008;47.404;8.502;2023-07-20T12:23:03;27.60;99.90
2010;DHT22;1008;47.404;8.502;2023-07-20T12:25:37;27.80;99.90
2010;DHT22;1008;47.404;8.502;2023-07-20T12:28:06;28.20;99.90
2010;DHT22;1008;47.404;8.502;2023-07-20T12:30:33;28.20;99.90
2010;DHT22;1008;47.404;8.502;2023-07-20T12:33:01;27.70;99.90
2010;DHT22;1008;47.404;8.502;2023-07-20T12:35:29;27.70;99.90
2010;DHT22;1008;47.404;8.502;2023-07-20T12:37:55;27.90;99.90
2010;DHT22;1008;47.404;8.502;2023-07-20T12:40:22;28.30;99.90
2010;DHT22;1008;47.404;8.502;2023-07-20T12:42:49;28.50;99.90
2010;DHT22;1008;47.404;8.502;2023-07-20T12:45:16;29.00;99.90
2010;DHT22;1008;47.404;8.502;2023-07-20T12:47:43;29.60;99.90
2010;DHT22;1008;47.404;8.502;2023-07-20T12:50:11;29.80;99.90
2010;DHT22;1008;47.404;8.502;2023-07-20T12:52:39;28.80;99.90
2010;DHT22;1008;47.404;8.502;2023-07-20T12:55:07;27.80;99.90
2010;DHT22;1008;47.404;8.502;2023-07-20T12:57:34;27.60;99.90
2010;DHT22;1008;47.404;8.502;2023-07-20T13:00:01;27.30;99.90
2010;DHT22;1008;47.404;8.502;2023-07-20T13:02:29;27.30;99.90
2010;DHT22;1008;47.404;8.502;2023-07-20T13:04:56;26.70;99.90
2010;DHT22;1008;47.404;8.502;2023-07-20T13:07:31;26.40;99.90
2010;DHT22;1008;47.404;8.502;2023-07-20T13:09:58;26.40;99.90
2010;DHT22;1008;47.404;8.502;2023-07-20T13:12:26;26.30;99.90
2010;DHT22;1008;47.404;8.502;2023-07-20T13:14:53;26.40;99.90
2010;DHT22;1008;47.404;8.502;2023-07-20T13:17:20;26.20;99.90
2010;DHT22;1008;47.404;8.502;2023-07-20T13:19:47;26.30;99.90
2010;DHT22;1008;47.404;8.502;2023-07-20T13:22:13;26.50;99.90
2010;DHT22;1008;47.404;8.502;2023-07-20T13:24:43;26.70;99.90
2010;DHT22;1008;47.404;8.502;2023-07-20T13:27:10;26.80;99.90
2010;DHT22;1008;47.404;8.502;2023-07-20T13:29:37;27.00;99.90
2010;DHT22;1008;47.404;8.502;2023-07-20T13:32:04;27.10;99.90
2010;DHT22;1008;47.404;8.502;2023-07-20T13:34:31;27.40;99.90
2010;DHT22;1008;47.404;8.502;2023-07-20T13:36:58;27.80;99.90
2010;DHT22;1008;47.404;8.502;2023-07-20T13:39:25;28.20;99.90
2010;DHT22;1008;47.404;8.502;2023-07-20T13:41:54;28.60;99.90
2010;DHT22;1008;47.404;8.502;2023-07-20T13:44:20;28.60;99.90
2010;DHT22;1008;47.404;8.502;2023-07-20T13:46:47;28.70;99.90
2010;DHT22;1008;47.404;8.502;2023-07-20T13:49:14;28.00;99.90
2010;DHT22;1008;47.404;8.502;2023-07-20T13:51:41;28.30;99.90
2010;DHT22;1008;47.404;8.502;2023-07-20T13:54:08;28.70;99.90
2010;DHT22;1008;47.404;8.502;2023-07-20T13:56:35;29.00;99.90
2010;DHT22;1008;47.404;8.502;2023-07-20T13:59:03;29.10;99.90
2010;DHT22;1008;47.404;8.502;2023-07-20T14:01:29;29.00;99.90
2010;DHT22;1008;47.404;8.502;2023-07-20T14:03:58;29.20;99.90
2010;DHT22;1008;47.404;8.502;2023-07-20T14:06:25;29.60;99.90
2010;DHT22;1008;47.404;8.502;2023-07-20T14:08:52;30.10;99.90
2010;DHT22;1008;47.404;8.502;2023-07-20T14:11:19;30.10;99.90
2010;DHT22;1008;47.404;8.502;2023-07-20T14:13:45;30.30;99.90
2010;DHT22;1008;47.404;8.502;2023-07-20T14:16:13;30.00;99.90
2010;DHT22;1008;47.404;8.502;2023-07-20T14:18:40;29.70;99.90
2010;DHT22;1008;47.404;8.502;2023-07-20T14:21:07;28.80;99.90
2010;DHT22;1008;47.404;8.502;2023-07-20T14:23:33;28.50;99.90
2010;DHT22;1008;47.404;8.502;2023-07-20T14:26:01;28.50;99.90
2010;DHT22;1008;47.404;8.502;2023-07-20T14:28:30;28.30;99.90
2010;DHT22;1008;47.404;8.502;2023-07-20T14:30:57;28.10;99.90
2010;DHT22;1008;47.404;8.502;2023-07-20T14:33:25;28.20;99.90
2010;DHT22;1008;47.404;8.502;2023-07-20T14:35:51;28.30;99.90
2010;DHT22;1008;47.404;8.502;2023-07-20T14:38:18;28.50;99.90
2010;DHT22;1008;47.404;8.502;2023-07-20T14:40:45;28.70;99.90
2010;DHT22;1008;47.404;8.502;2023-07-20T14:43:11;29.20;99.90
2010;DHT22;1008;47.404;8.502;2023-07-20T14:45:39;29.50;99.90
2010;DHT22;1008;47.404;8.502;2023-07-20T14:48:06;29.50;99.90
2010;DHT22;1008;47.404;8.502;2023-07-20T14:50:35;29.40;99.90
2010;DHT22;1008;47.404;8.502;2023-07-20T14:53:01;29.00;99.90
2010;DHT22;1008;47.404;8.502;2023-07-20T14:55:28;28.70;99.90
2010;DHT22;1008;47.404;8.502;2023-07-20T14:57:55;28.30;99.90
2010;DHT22;1008;47.404;8.502;2023-07-20T15:00:22;28.30;99.90
2010;DHT22;1008;47.404;8.502;2023-07-20T15:02:49;28.10;99.90
2010;DHT22;1008;47.404;8.502;2023-07-20T15:05:20;27.80;99.90
2010;DHT22;1008;47.404;8.502;2023-07-20T15:07:49;27.70;99.90
2010;DHT22;1008;47.404;8.502;2023-07-20T15:10:16;27.60;99.90
2010;DHT22;1008;47.404;8.502;2023-07-20T15:12:43;27.70;99.90
2010;DHT22;1008;47.404;8.502;2023-07-20T15:15:11;27.70;99.90
2010;DHT22;1008;47.404;8.502;2023-07-20T15:17:39;28.00;99.90
2010;DHT22;1008;47.404;8.502;2023-07-20T15:20:09;28.50;99.90
2010;DHT22;1008;47.404;8.502;2023-07-20T15:22:36;28.40;99.90
2010;DHT22;1008;47.404;8.502;2023-07-20T15:25:06;28.10;99.90
2010;DHT22;1008;47.404;8.502;2023-07-20T15:27:33;27.60;99.90
2010;DHT22;1008;47.404;8.502;2023-07-20T15:30:00;27.80;99.90
2010;DHT22;1008;47.404;8.502;2023-07-20T15:32:27;27.30;99.90
2010;DHT22;1008;47.404;8.502;2023-07-20T15:34:54;27.30;99.90
2010;DHT22;1008;47.404;8.502;2023-07-20T15:37:20;27.70;99.90
2010;DHT22;1008;47.404;8.502;2023-07-20T15:39:48;27.80;99.90
2010;DHT22;1008;47.404;8.502;2023-07-20T15:42:16;27.90;99.90
2010;DHT22;1008;47.404;8.502;2023-07-20T15:44:43;28.10;99.90
2010;DHT22;1008;47.404;8.502;2023-07-20T15:47:09;28.30;99.90
2010;DHT22;1008;47.404;8.502;2023-07-20T15:49:37;28.30;99.90
2010;DHT22;1008;47.404;8.502;2023-07-20T15:52:04;28.30;99.90
2010;DHT22;1008;47.404;8.502;2023-07-20T15:54:31;28.40;99.90
2010;DHT22;1008;47.404;8.502;2023-07-20T15:56:57;28.00;99.90
2010;DHT22;1008;47.404;8.502;2023-07-20T15:59:25;27.90;99.90
2010;DHT22;1008;47.404;8.502;2023-07-20T16:01:52;27.70;99.90
2010;DHT22;1008;47.404;8.502;2023-07-20T16:04:19;27.60;99.90
2010;DHT22;1008;47.404;8.502;2023-07-20T16:06:46;27.70;99.90